Time;durP1;ratioP1;P1;durP2;ratioP2;P2;SDS_P1;SDS_P2;PMS_P1;PMS_P2;Temp;Humidity;BMP_temperature;BMP_pressure;BME280_temperature;BME280_humidity;BME280_pressure;Samples;Min_cycle;Max_cycle;Signal;HPM_P1;HPM_P2
2023/01/01 00:01:44;;;;;;;14.68;5.07;;;16.80;61.40;;;;;;5991729;29;20453;-72
2023/01/01 00:04:46;;;;;;;10.70;5.40;;;16.70;61.10;;;;;;6006404;29;20053;-72
2023/01/01 00:07:47;;;;;;;16.33;5.63;;;16.60;60.90;;;;;;6007579;29;20038;-72
2023/01/01 00:10:48;;;;;;;15.25;5.65;;;16.50;60.80;;;;;;6006028;29;20113;-73
2023/01/01 00:13:49;;;;;;;11.23;5.53;;;16.40;60.90;;;;;;6005890;29;20026;-73
2023/01/01 00:16:50;;;;;;;12.25;6.15;;;16.30;61.20;;;;;;6005985;29;20113;-73
2023/01/01 00:19:50;;;;;;;17.60;6.47;;;16.20;61.40;;;;;;6005340;29;20408;-73
2023/01/01 00:22:52;;;;;;;12.40;6.47;;;16.10;61.50;;;;;;5989636;29;20052;-73
2023/01/01 00:25:53;;;;;;;12.82;6.18;;;16.00;61.60;;;;;;6005439;29;20052;-74
2023/01/01 00:28:54;;;;;;;12.02;6.60;;;15.90;61.90;;;;;;6006707;29;20357;-72
2023/01/01 00:31:55;;;;;;;13.57;6.57;;;15.80;62.00;;;;;;6005452;29;20049;-73
2023/01/01 00:34:55;;;;;;;13.70;6.03;;;15.80;62.30;;;;;;6004336;29;20109;-73
2023/01/01 00:37:56;;;;;;;14.70;5.85;;;15.70;62.50;;;;;;6006324;29;20082;-73
2023/01/01 00:40:57;;;;;;;11.60;3.95;;;15.70;62.70;;;;;;5991299;29;20094;-73
2023/01/01 00:43:58;;;;;;;9.95;3.53;;;15.60;63.10;;;;;;6007616;29;20483;-74
2023/01/01 00:46:59;;;;;;;10.20;3.78;;;15.60;63.80;;;;;;6007736;29;20060;-74
2023/01/01 00:50:00;;;;;;;9.70;3.47;;;15.70;64.30;;;;;;6006056;29;20061;-73
2023/01/01 00:53:00;;;;;;;10.27;3.22;;;15.70;64.40;;;;;;6007505;29;20034;-74
2023/01/01 00:56:02;;;;;;;12.65;3.38;;;15.70;64.40;;;;;;6005022;29;20046;-74
2023/01/01 00:59:03;;;;;;;12.45;3.60;;;15.80;64.50;;;;;;6007113;29;20366;-74
2023/01/01 01:02:04;;;;;;;14.00;3.38;;;15.80;64.40;;;;;;6021053;29;20038;-73
2023/01/01 01:05:05;;;;;;;12.55;3.10;;;15.80;64.30;;;;;;6008202;29;20034;-74
2023/01/01 01:08:06;;;;;;;13.65;3.30;;;15.90;64.30;;;;;;6005860;29;20058;-73
2023/01/01 01:11:11;;;;;;;8.00;2.78;;;16.00;64.10;;;;;;5990230;29;20038;-73
2023/01/01 01:14:13;;;;;;;8.30;2.70;;;16.00;63.80;;;;;;6006165;29;20333;-73
2023/01/01 01:17:14;;;;;;;8.45;2.97;;;16.10;63.50;;;;;;6006002;29;20078;-73
2023/01/01 01:20:15;;;;;;;5.32;2.97;;;16.10;63.20;;;;;;6005638;29;20041;-73
2023/01/01 01:23:16;;;;;;;9.38;2.72;;;16.20;63.00;;;;;;6001913;29;20046;-73
2023/01/01 01:26:20;;;;;;;13.43;2.83;;;16.30;62.80;;;;;;6004299;29;20038;-73
2023/01/01 01:29:21;;;;;;;6.47;2.70;;;16.30;62.60;;;;;;6002862;29;20037;-73
2023/01/01 01:32:23;;;;;;;12.18;3.38;;;16.40;62.40;;;;;;6004686;29;20034;-74
2023/01/01 01:35:24;;;;;;;10.65;5.10;;;16.40;62.30;;;;;;5986815;29;20064;-72
2023/01/01 01:38:24;;;;;;;16.13;5.60;;;16.40;62.20;;;;;;6006267;29;20464;-72
2023/01/01 01:41:26;;;;;;;13.88;5.68;;;16.30;61.70;;;;;;5989201;29;20099;-73
2023/01/01 01:44:46;;;;;;;16.70;5.20;;;16.20;61.60;;;;;;5989407;29;20034;-73
2023/01/01 01:47:52;;;;;;;13.27;5.97;;;16.10;61.80;;;;;;6004620;29;20091;-72
2023/01/01 01:50:55;;;;;;;11.05;5.60;;;16.00;62.10;;;;;;6005405;29;20042;-73
2023/01/01 01:54:07;;;;;;;12.48;5.57;;;15.90;62.40;;;;;;6006097;29;20598;-73
2023/01/01 01:57:11;;;;;;;14.15;5.95;;;15.80;62.70;;;;;;6003116;29;20030;-73
2023/01/01 02:00:13;;;;;;;14.35;5.85;;;15.70;62.90;;;;;;5987556;29;20046;-72
2023/01/01 02:03:19;;;;;;;17.10;5.60;;;15.70;63.00;;;;;;5987962;29;20057;-72
2023/01/01 02:06:20;;;;;;;14.43;6.40;;;15.60;63.30;;;;;;6002393;29;20349;-72
2023/01/01 02:09:21;;;;;;;14.15;6.70;;;15.50;63.30;;;;;;5988390;29;20052;-72
2023/01/01 02:12:23;;;;;;;13.68;6.40;;;15.50;63.40;;;;;;6005385;29;20060;-72
2023/01/01 02:15:29;;;;;;;12.10;5.70;;;15.50;63.50;;;;;;6004259;29;20042;-73
2023/01/01 02:18:45;;;;;;;15.38;5.97;;;15.40;63.60;;;;;;6005272;29;20038;-73
2023/01/01 02:22:31;;;;;;;12.35;6.10;;;15.40;63.70;;;;;;6004330;29;20141;-72
2023/01/01 02:25:51;;;;;;;11.68;5.72;;;15.30;63.90;;;;;;6004924;29;20064;-72
2023/01/01 02:29:04;;;;;;;15.40;6.60;;;15.30;64.00;;;;;;6003531;29;20131;-72
2023/01/01 02:32:16;;;;;;;17.73;5.78;;;15.20;64.10;;;;;;6016108;29;20045;-72
2023/01/01 02:35:37;;;;;;;12.80;6.57;;;15.20;64.20;;;;;;6006628;29;20102;-72
2023/01/01 02:38:49;;;;;;;11.85;5.65;;;15.10;64.50;;;;;;6009897;29;20034;-73
2023/01/01 02:41:53;;;;;;;11.05;5.13;;;15.10;64.60;;;;;;6006660;29;20034;-74
2023/01/01 02:44:57;;;;;;;12.88;5.13;;;15.10;65.50;;;;;;6008740;29;20034;-72
2023/01/01 02:48:03;;;;;;;11.00;4.55;;;15.10;64.70;;;;;;6021230;29;20064;-73
2023/01/01 02:51:33;;;;;;;14.52;5.25;;;15.10;64.80;;;;;;6044508;29;20192;-73
2023/01/01 02:54:43;;;;;;;17.65;5.43;;;15.00;64.70;;;;;;6048794;29;20041;-73
2023/01/01 02:57:55;;;;;;;11.07;6.00;;;15.00;64.70;;;;;;6048104;29;20033;-72
2023/01/01 03:01:12;;;;;;;13.55;5.70;;;15.00;64.80;;;;;;6052179;29;20463;-72
2023/01/01 03:04:33;;;;;;;13.80;5.15;;;14.90;64.70;;;;;;6053421;29;20096;-72
2023/01/01 03:08:03;;;;;;;19.48;5.55;;;14.90;65.00;;;;;;6037804;29;20037;-73
2023/01/01 03:11:08;;;;;;;10.90;5.15;;;14.80;65.00;;;;;;6051398;29;20479;-73
2023/01/01 03:14:23;;;;;;;11.23;5.10;;;14.80;65.30;;;;;;6037499;29;20195;-72
2023/01/01 03:17:32;;;;;;;12.82;4.93;;;14.70;65.50;;;;;;6035321;29;20047;-72
2023/01/01 03:20:41;;;;;;;16.50;5.00;;;14.60;65.70;;;;;;6052108;29;20131;-74
2023/01/01 03:23:46;;;;;;;18.42;5.50;;;14.60;66.10;;;;;;6037323;29;20132;-73
2023/01/01 03:26:51;;;;;;;12.73;5.85;;;14.50;65.90;;;;;;6054201;29;20040;-73
2023/01/01 03:29:56;;;;;;;13.88;5.38;;;14.50;66.10;;;;;;6055290;29;20463;-73
2023/01/01 03:33:06;;;;;;;11.50;4.55;;;14.50;66.30;;;;;;6055620;29;20051;-74
2023/01/01 03:36:47;;;;;;;15.23;5.82;;;14.40;66.40;;;;;;6033733;29;20048;-73
2023/01/01 03:39:51;;;;;;;6.57;3.92;;;14.40;66.60;;;;;;6049348;29;20348;-73
2023/01/01 03:43:02;;;;;;;12.77;6.18;;;14.30;66.60;;;;;;6052401;29;20049;-71
2023/01/01 03:46:05;;;;;;;13.13;4.90;;;14.30;66.60;;;;;;6035901;29;20093;-73
2023/01/01 03:49:10;;;;;;;14.25;5.38;;;14.30;66.70;;;;;;6053129;29;20052;-74
2023/01/01 03:52:14;;;;;;;15.60;5.18;;;14.30;66.70;;;;;;6037683;29;20072;-75
2023/01/01 03:55:30;;;;;;;12.80;4.70;;;14.30;66.70;;;;;;6054108;29;20507;-72
2023/01/01 03:58:36;;;;;;;9.80;4.53;;;14.40;66.70;;;;;;6036994;29;20128;-74
2023/01/01 04:01:41;;;;;;;14.02;5.50;;;14.30;66.60;;;;;;6053676;29;20033;-74
2023/01/01 04:04:44;;;;;;;14.40;5.45;;;14.30;66.60;;;;;;6039887;29;20088;-73
2023/01/01 04:07:46;;;;;;;10.07;5.25;;;14.30;66.60;;;;;;6038572;29;20120;-73
2023/01/01 04:10:55;;;;;;;10.20;4.80;;;14.30;66.60;;;;;;6052225;29;20033;-73
2023/01/01 04:13:56;;;;;;;14.80;5.38;;;14.30;66.70;;;;;;6035391;29;20033;-73
2023/01/01 04:16:58;;;;;;;12.43;5.75;;;14.30;66.60;;;;;;6036387;29;20484;-72
2023/01/01 04:19:59;;;;;;;12.77;5.28;;;14.40;66.70;;;;;;6054170;29;20041;-73
2023/01/01 04:23:01;;;;;;;10.48;5.30;;;14.30;66.70;;;;;;6055598;29;20049;-73
2023/01/01 04:26:01;;;;;;;12.45;5.55;;;14.30;66.70;;;;;;6054118;29;20124;-73
2023/01/01 04:29:02;;;;;;;10.90;5.40;;;14.30;66.70;;;;;;6037021;29;20096;-73
2023/01/01 04:32:03;;;;;;;12.15;4.80;;;14.30;66.70;;;;;;6051975;29;20033;-72
2023/01/01 04:35:06;;;;;;;11.32;5.03;;;14.30;66.70;;;;;;6035703;29;20044;-72
2023/01/01 04:38:11;;;;;;;13.93;5.25;;;14.30;66.80;;;;;;6035323;29;20045;-72
2023/01/01 04:41:12;;;;;;;12.63;5.03;;;14.30;66.80;;;;;;6033436;29;20053;-72
2023/01/01 04:44:13;;;;;;;8.93;4.75;;;14.30;66.80;;;;;;6052427;29;20033;-73
2023/01/01 04:47:14;;;;;;;10.18;5.00;;;14.30;66.80;;;;;;6053623;29;20044;-72
2023/01/01 04:50:14;;;;;;;8.77;4.57;;;14.30;67.00;;;;;;6044895;29;20055;-73
2023/01/01 04:53:15;;;;;;;11.27;4.63;;;14.20;67.00;;;;;;6030154;29;20107;-72
2023/01/01 04:56:19;;;;;;;10.68;4.97;;;14.20;67.00;;;;;;6031333;29;20117;-72
2023/01/01 04:59:20;;;;;;;12.38;4.65;;;14.20;67.10;;;;;;6030230;29;20121;-73
2023/01/01 05:02:21;;;;;;;7.20;4.03;;;14.20;67.20;;;;;;6028319;29;20053;-73
2023/01/01 05:05:22;;;;;;;11.95;4.47;;;14.20;67.30;;;;;;6031139;29;20431;-74
2023/01/01 05:08:24;;;;;;;23.95;4.63;;;14.20;67.40;;;;;;6029757;29;20741;-73
2023/01/01 05:11:27;;;;;;;13.05;5.45;;;14.20;67.30;;;;;;6030608;29;20103;-72
2023/01/01 05:14:28;;;;;;;9.50;4.35;;;14.20;67.30;;;;;;6014442;29;20077;-73
2023/01/01 05:17:29;;;;;;;11.38;4.93;;;14.20;67.10;;;;;;6029602;29;20041;-74
2023/01/01 05:20:30;;;;;;;9.88;5.10;;;14.20;67.10;;;;;;6030374;29;20354;-73
2023/01/01 05:23:32;;;;;;;12.48;5.07;;;14.20;67.10;;;;;;6029626;29;20076;-73
2023/01/01 05:26:35;;;;;;;11.65;5.47;;;14.20;67.10;;;;;;6029431;29;20459;-73
2023/01/01 05:29:36;;;;;;;8.82;4.80;;;14.20;67.00;;;;;;6027252;29;20456;-73
2023/01/01 05:32:37;;;;;;;13.95;5.53;;;14.20;67.00;;;;;;6026080;29;20080;-73
2023/01/01 05:35:38;;;;;;;9.52;4.97;;;14.20;67.10;;;;;;6027673;29;20096;-73
2023/01/01 05:38:39;;;;;;;16.20;5.53;;;14.10;67.10;;;;;;6028287;29;20434;-73
2023/01/01 05:41:41;;;;;;;10.10;4.88;;;14.10;67.00;;;;;;6025548;29;20051;-73
2023/01/01 05:44:41;;;;;;;12.30;5.18;;;14.20;67.10;;;;;;6015325;29;20053;-73
2023/01/01 05:47:42;;;;;;;11.75;4.97;;;14.10;67.10;;;;;;6028370;29;20048;-73
2023/01/01 05:50:44;;;;;;;11.15;5.45;;;14.00;67.10;;;;;;6048780;29;20037;-73
2023/01/01 05:53:45;;;;;;;9.73;4.90;;;14.00;67.10;;;;;;6036400;29;20428;-73
2023/01/01 05:56:46;;;;;;;14.40;5.85;;;14.00;67.30;;;;;;6035551;29;20040;-72
2023/01/01 05:59:47;;;;;;;11.63;5.18;;;14.00;67.40;;;;;;6036436;29;20057;-73
2023/01/01 06:02:49;;;;;;;13.93;5.20;;;14.00;67.40;;;;;;6049974;29;20415;-73
2023/01/01 06:05:50;;;;;;;10.95;4.97;;;13.90;67.50;;;;;;6035255;29;20052;-73
2023/01/01 06:08:55;;;;;;;13.68;5.72;;;13.90;67.60;;;;;;6036062;29;20116;-73
2023/01/01 06:11:56;;;;;;;11.40;4.68;;;13.90;67.70;;;;;;6053074;29;20044;-74
2023/01/01 06:14:57;;;;;;;18.95;5.28;;;13.90;67.70;;;;;;6051583;29;20449;-73
2023/01/01 06:17:58;;;;;;;16.25;6.68;;;13.90;67.80;;;;;;6020465;29;20037;-73
2023/01/01 06:21:08;;;;;;;13.45;5.53;;;13.90;67.90;;;;;;6051268;29;20511;-73
2023/01/01 06:24:09;;;;;;;17.88;5.30;;;13.80;67.90;;;;;;6048837;29;20045;-73
2023/01/01 06:27:10;;;;;;;15.13;5.35;;;13.90;67.90;;;;;;6035046;29;20045;-73
2023/01/01 06:30:11;;;;;;;15.93;5.75;;;13.80;67.90;;;;;;6049797;29;20673;-73
2023/01/01 06:33:12;;;;;;;16.20;4.82;;;13.80;67.90;;;;;;6032682;29;20093;-73
2023/01/01 06:36:14;;;;;;;11.75;5.57;;;13.80;68.00;;;;;;6019962;29;20542;-73
2023/01/01 06:39:15;;;;;;;11.02;5.32;;;13.80;68.10;;;;;;6033580;29;20049;-73
2023/01/01 06:42:16;;;;;;;10.55;4.80;;;13.70;67.90;;;;;;6033832;29;20119;-73
2023/01/01 06:45:17;;;;;;;7.65;4.45;;;13.70;67.90;;;;;;6034595;29;20048;-73
2023/01/01 06:48:18;;;;;;;9.43;4.50;;;13.70;68.10;;;;;;6019130;29;20033;-73
2023/01/01 06:51:21;;;;;;;8.30;4.70;;;13.60;68.20;;;;;;6036661;29;20068;-73
2023/01/01 06:54:22;;;;;;;7.72;4.28;;;13.50;68.70;;;;;;6036434;29;20087;-73
2023/01/01 06:57:23;;;;;;;12.77;4.45;;;13.50;68.60;;;;;;6035282;29;20375;-73
2023/01/01 07:00:24;;;;;;;9.88;4.70;;;13.50;68.80;;;;;;6033499;29;20124;-73
2023/01/01 07:03:25;;;;;;;13.60;4.82;;;13.50;69.00;;;;;;6050478;29;20128;-73
2023/01/01 07:06:28;;;;;;;15.00;4.82;;;13.40;69.00;;;;;;6035398;29;20064;-72
2023/01/01 07:09:29;;;;;;;14.80;4.47;;;13.40;69.10;;;;;;6049704;29;20068;-72
2023/01/01 07:12:30;;;;;;;14.38;4.43;;;13.40;69.10;;;;;;6050293;29;20034;-74
2023/01/01 07:15:31;;;;;;;8.93;4.50;;;13.40;69.00;;;;;;6051834;29;20070;-72
2023/01/01 07:18:32;;;;;;;12.95;5.63;;;13.40;69.00;;;;;;6033702;29;20057;-74
2023/01/01 07:21:46;;;;;;;9.90;4.60;;;13.40;69.00;;;;;;6019642;29;20415;-73
2023/01/01 07:24:47;;;;;;;9.30;5.07;;;13.40;69.00;;;;;;6021265;29;20033;-73
2023/01/01 07:27:47;;;;;;;12.82;4.53;;;13.40;69.00;;;;;;6051830;29;20491;-75
2023/01/01 07:30:49;;;;;;;18.00;5.18;;;13.30;69.10;;;;;;6051376;29;20044;-73
2023/01/01 07:33:50;;;;;;;10.95;4.70;;;13.30;69.40;;;;;;6049845;29;21553;-72
2023/01/01 07:36:50;;;;;;;10.80;4.72;;;13.30;69.30;;;;;;6036713;29;20041;-74
2023/01/01 07:39:52;;;;;;;15.85;4.90;;;13.30;69.30;;;;;;6052910;29;20053;-72
2023/01/01 07:42:53;;;;;;;10.48;4.20;;;13.30;69.40;;;;;;6037586;29;20429;-71
2023/01/01 07:45:53;;;;;;;9.88;5.05;;;13.30;69.50;;;;;;6053882;29;20044;-73
2023/01/01 07:48:55;;;;;;;14.93;5.13;;;13.40;69.40;;;;;;6053215;29;20074;-72
2023/01/01 07:51:56;;;;;;;10.95;4.55;;;13.40;69.40;;;;;;6053436;29;20030;-73
2023/01/01 07:54:57;;;;;;;12.20;4.60;;;13.40;69.30;;;;;;6053018;29;20379;-73
2023/01/01 07:57:58;;;;;;;17.58;4.25;;;13.50;69.30;;;;;;6051562;29;20431;-72
2023/01/01 08:00:59;;;;;;;12.95;4.55;;;13.50;69.10;;;;;;6055292;29;20040;-73
2023/01/01 08:03:59;;;;;;;10.70;5.30;;;13.50;69.10;;;;;;6023967;29;20482;-73
2023/01/01 08:07:00;;;;;;;8.30;4.25;;;13.50;69.00;;;;;;6024053;29;20033;-73
2023/01/01 08:10:03;;;;;;;13.50;4.90;;;13.50;69.00;;;;;;6054649;29;20061;-73
2023/01/01 08:13:06;;;;;;;13.45;4.45;;;13.50;69.00;;;;;;6023118;29;20044;-73
2023/01/01 08:16:07;;;;;;;10.50;4.13;;;13.60;68.90;;;;;;6045122;29;20040;-74
2023/01/01 08:19:08;;;;;;;14.30;4.43;;;13.60;68.80;;;;;;6057021;29;20735;-73
2023/01/01 08:22:09;;;;;;;11.75;4.40;;;13.70;68.80;;;;;;6034900;29;20420;-72
2023/01/01 08:25:10;;;;;;;15.02;4.63;;;13.80;68.80;;;;;;6053517;29;20033;-74
2023/01/01 08:28:11;;;;;;;9.10;4.35;;;13.90;68.80;;;;;;6021564;29;20148;-73
2023/01/01 08:31:12;;;;;;;10.60;4.18;;;14.00;68.60;;;;;;6021936;29;20467;-74
2023/01/01 08:34:13;;;;;;;8.35;3.58;;;14.20;68.30;;;;;;6036519;29;20052;-74
2023/01/01 08:37:14;;;;;;;13.38;4.18;;;14.30;68.00;;;;;;6037703;29;20185;-73
2023/01/01 08:40:15;;;;;;;9.57;3.63;;;14.40;67.60;;;;;;6052470;29;20036;-73
2023/01/01 08:43:16;;;;;;;11.50;3.95;;;14.60;67.30;;;;;;6054463;29;20037;-73
2023/01/01 08:46:17;;;;;;;8.38;4.10;;;14.70;66.90;;;;;;6053855;29;20123;-74
2023/01/01 08:49:17;;;;;;;17.80;4.43;;;14.80;66.50;;;;;;6033737;29;20044;-73
2023/01/01 08:52:19;;;;;;;15.32;4.45;;;14.90;66.20;;;;;;6073714;29;20040;-73
2023/01/01 08:55:20;;;;;;;12.80;3.63;;;15.00;65.70;;;;;;6056530;29;20075;-73
2023/01/01 08:58:20;;;;;;;13.48;4.32;;;15.10;65.10;;;;;;6056658;29;20033;-74
2023/01/01 09:01:21;;;;;;;21.02;4.40;;;15.10;64.80;;;;;;6052566;29;20672;-74
2023/01/01 09:04:22;;;;;;;8.73;4.05;;;15.30;64.70;;;;;;6052232;29;20040;-73
2023/01/01 09:07:23;;;;;;;9.60;4.38;;;15.40;64.30;;;;;;6035189;29;20344;-74
2023/01/01 09:10:24;;;;;;;11.98;4.90;;;15.50;63.80;;;;;;6035792;29;20052;-73
2023/01/01 09:13:25;;;;;;;11.00;4.55;;;15.60;63.60;;;;;;6053141;29;20060;-73
2023/01/01 09:16:26;;;;;;;8.18;3.63;;;15.70;63.40;;;;;;6033914;29;20041;-73
2023/01/01 09:19:27;;;;;;;9.80;3.50;;;15.80;63.00;;;;;;6052021;29;20037;-73
2023/01/01 09:22:27;;;;;;;11.02;4.55;;;15.80;62.80;;;;;;6048118;29;20052;-74
2023/01/01 09:25:28;;;;;;;11.95;4.05;;;15.90;62.80;;;;;;6051815;29;20040;-74
2023/01/01 09:28:29;;;;;;;10.07;3.78;;;16.00;62.70;;;;;;6058225;29;20037;-73
2023/01/01 09:31:30;;;;;;;11.15;3.33;;;16.00;62.70;;;;;;6073516;29;20036;-73
2023/01/01 09:34:31;;;;;;;11.30;4.22;;;16.10;62.60;;;;;;6037324;29;20084;-73
2023/01/01 09:37:33;;;;;;;11.35;3.47;;;16.10;62.40;;;;;;6053578;29;20116;-73
2023/01/01 09:41:22;;;;;;;7.05;3.42;;;16.20;62.40;;;;;;6053482;29;20049;-73
2023/01/01 09:44:25;;;;;;;13.88;3.70;;;16.20;62.40;;;;;;5986705;29;20565;-72
2023/01/01 09:47:32;;;;;;;10.48;4.13;;;16.20;62.10;;;;;;5988425;29;20041;-73
2023/01/01 09:50:41;;;;;;;13.73;3.33;;;16.30;61.90;;;;;;6001676;29;20042;-74
2023/01/01 09:53:53;;;;;;;6.38;2.70;;;16.30;61.80;;;;;;5977908;29;20050;-72
2023/01/01 09:56:57;;;;;;;8.45;3.20;;;16.40;61.60;;;;;;5980591;29;20038;-73
2023/01/01 09:59:59;;;;;;;16.75;3.55;;;16.50;61.40;;;;;;5965318;29;20162;-73
2023/01/01 10:03:47;;;;;;;9.07;3.58;;;16.60;61.30;;;;;;5955535;29;20042;-74
2023/01/01 10:07:06;;;;;;;13.95;3.70;;;16.70;61.00;;;;;;5967046;29;20076;-74
2023/01/01 10:10:25;;;;;;;12.05;4.00;;;16.80;60.80;;;;;;5961332;29;20042;-73
2023/01/01 10:13:35;;;;;;;10.43;3.33;;;16.90;60.40;;;;;;5981548;29;20039;-73
2023/01/01 10:16:44;;;;;;;9.95;2.33;;;17.00;60.40;;;;;;5965501;29;20043;-73
2023/01/01 10:19:55;;;;;;;11.52;3.10;;;17.20;60.10;;;;;;5986839;29;20046;-73
2023/01/01 10:23:28;;;;;;;7.25;2.60;;;17.30;59.30;;;;;;6026410;29;20038;-73
2023/01/01 10:26:30;;;;;;;11.85;2.47;;;17.40;59.10;;;;;;6001856;29;20392;-73
2023/01/01 10:29:43;;;;;;;8.48;2.70;;;17.60;58.90;;;;;;6003913;29;20046;-74
2023/01/01 10:32:50;;;;;;;5.95;2.20;;;17.70;58.80;;;;;;5998406;29;20046;-74
2023/01/01 10:35:55;;;;;;;7.25;2.70;;;17.90;58.50;;;;;;6014244;29;20049;-74
2023/01/01 10:38:56;;;;;;;6.75;2.40;;;18.10;58.20;;;;;;6010285;29;20037;-73
2023/01/01 10:41:57;;;;;;;7.10;2.40;;;18.30;57.80;;;;;;6024945;29;20038;-73
2023/01/01 10:45:04;;;;;;;8.90;2.85;;;18.60;57.60;;;;;;5993606;29;20045;-73
2023/01/01 10:48:20;;;;;;;10.63;2.38;;;18.80;57.00;;;;;;6002657;29;20049;-73
2023/01/01 10:51:23;;;;;;;6.65;1.85;;;19.10;56.50;;;;;;6004094;29;20061;-74
2023/01/01 10:54:27;;;;;;;17.20;2.40;;;19.50;55.50;;;;;;6014208;29;20077;-74
2023/01/01 10:57:37;;;;;;;10.95;1.63;;;19.90;54.80;;;;;;6004021;29;20041;-74
2023/01/01 11:00:38;;;;;;;12.57;2.85;;;20.20;54.00;;;;;;6002846;29;20438;-74
2023/01/01 11:03:56;;;;;;;7.18;1.90;;;20.20;53.50;;;;;;6001735;29;20034;-74
2023/01/01 11:06:56;;;;;;;11.82;2.35;;;20.20;53.60;;;;;;6011935;29;22214;-73
2023/01/01 11:10:03;;;;;;;13.38;2.38;;;20.50;52.70;;;;;;6024707;29;20049;-73
2023/01/01 11:13:19;;;;;;;11.45;1.80;;;20.80;52.10;;;;;;6018953;29;20046;-73
2023/01/01 11:16:21;;;;;;;5.70;1.92;;;21.10;51.30;;;;;;6001504;29;20046;-74
2023/01/01 11:19:28;;;;;;;9.63;2.10;;;21.30;50.80;;;;;;6015337;29;20050;-73
2023/01/01 11:22:51;;;;;;;10.65;2.40;;;21.60;50.60;;;;;;6017138;29;20041;-72
2023/01/01 11:26:25;;;;;;;4.57;1.80;;;21.90;50.30;;;;;;6017565;29;20038;-74
2023/01/01 11:29:28;;;;;;;6.18;1.92;;;22.50;49.00;;;;;;5882578;30;20047;-74
2023/01/01 11:32:35;;;;;;;4.82;1.48;;;22.90;47.50;;;;;;5892908;30;20043;-74
2023/01/01 11:35:48;;;;;;;11.80;1.88;;;22.80;47.20;;;;;;5925511;30;20044;-73
2023/01/01 11:39:04;;;;;;;10.70;2.58;;;22.40;47.70;;;;;;5924910;30;20070;-73
2023/01/01 11:42:07;;;;;;;9.40;1.65;;;22.10;47.60;;;;;;5920691;30;20047;-73
2023/01/01 11:45:23;;;;;;;8.55;1.50;;;21.90;47.70;;;;;;5916934;30;20036;-73
2023/01/01 11:48:33;;;;;;;8.68;1.85;;;21.70;47.80;;;;;;5915930;30;20041;-73
2023/01/01 11:51:34;;;;;;;8.27;1.95;;;21.60;48.10;;;;;;5917429;30;20074;-75
2023/01/01 11:54:36;;;;;;;15.07;3.45;;;21.50;48.10;;;;;;5915298;30;20059;-73
2023/01/01 11:57:42;;;;;;;5.80;2.00;;;21.40;48.20;;;;;;5914598;30;20623;-73
2023/01/01 12:00:45;;;;;;;4.57;1.58;;;21.20;48.30;;;;;;5906742;30;20051;-74
2023/01/01 12:04:04;;;;;;;4.82;1.35;;;21.10;48.20;;;;;;5926255;29;20046;-74
2023/01/01 12:07:06;;;;;;;7.82;1.80;;;21.00;48.20;;;;;;5986385;29;20057;-74
2023/01/01 12:10:30;;;;;;;7.70;1.63;;;21.00;48.30;;;;;;6003872;29;20468;-75
2023/01/01 12:13:41;;;;;;;7.18;1.80;;;20.90;48.60;;;;;;6005081;29;20041;-74
2023/01/01 12:16:56;;;;;;;9.52;1.52;;;20.80;48.60;;;;;;6005883;29;20046;-74
2023/01/01 12:20:16;;;;;;;7.30;1.45;;;20.70;48.70;;;;;;6001327;29;20098;-73
2023/01/01 12:23:18;;;;;;;3.20;1.50;;;20.70;48.90;;;;;;5987043;29;20046;-74
2023/01/01 12:26:52;;;;;;;10.60;2.33;;;20.80;48.80;;;;;;6001786;29;20593;-74
2023/01/01 12:30:17;;;;;;;9.35;2.42;;;21.00;48.80;;;;;;5952064;29;20049;-74
2023/01/01 12:33:24;;;;;;;14.57;2.13;;;20.90;48.60;;;;;;5939280;29;20134;-74
2023/01/01 12:36:42;;;;;;;6.25;2.03;;;21.00;48.30;;;;;;5954214;29;20438;-72
2023/01/01 12:40:07;;;;;;;6.77;2.07;;;21.10;48.20;;;;;;5953642;29;20054;-74
2023/01/01 12:43:14;;;;;;;5.72;1.67;;;21.20;48.10;;;;;;5938621;29;20119;-73
2023/01/01 12:46:17;;;;;;;4.35;1.52;;;21.30;47.60;;;;;;5957022;29;20054;-73
2023/01/01 12:49:41;;;;;;;3.10;1.25;;;21.30;47.30;;;;;;5956685;29;20058;-74
2023/01/01 12:52:59;;;;;;;8.50;1.52;;;21.30;47.10;;;;;;5954232;29;20263;-74
2023/01/01 12:56:34;;;;;;;7.47;2.05;;;21.40;46.50;;;;;;5953122;29;20111;-73
2023/01/01 12:59:41;;;;;;;12.70;1.73;;;21.40;46.70;;;;;;5953525;29;20440;-74
2023/01/01 13:02:53;;;;;;;7.25;1.85;;;21.30;46.70;;;;;;5954784;29;20050;-74
2023/01/01 13:05:56;;;;;;;8.10;1.48;;;21.20;47.00;;;;;;5956527;29;20129;-74
2023/01/01 13:09:05;;;;;;;6.25;1.75;;;21.20;47.10;;;;;;6005003;29;20050;-74
2023/01/01 13:12:14;;;;;;;7.70;1.90;;;21.10;47.10;;;;;;6002221;29;20053;-73
2023/01/01 13:15:37;;;;;;;9.45;1.58;;;21.00;47.20;;;;;;6003347;29;20050;-74
2023/01/01 13:18:38;;;;;;;7.25;1.73;;;20.90;47.50;;;;;;6019056;29;20645;-73
2023/01/01 13:21:39;;;;;;;5.28;1.27;;;20.80;47.40;;;;;;6003370;29;20125;-73
2023/01/01 13:24:39;;;;;;;9.57;1.65;;;20.80;47.30;;;;;;6006179;29;20045;-74
2023/01/01 13:28:04;;;;;;;4.60;1.40;;;20.80;47.00;;;;;;6004915;29;20034;-74
2023/01/01 13:31:05;;;;;;;6.20;1.10;;;20.80;46.90;;;;;;6017101;29;20129;-74
2023/01/01 13:34:39;;;;;;;3.65;1.42;;;21.00;46.90;;;;;;6003675;29;20041;-74
2023/01/01 13:37:42;;;;;;;3.28;1.25;;;21.00;46.80;;;;;;6003601;29;20120;-73
2023/01/01 13:40:50;;;;;;;5.00;2.10;;;21.00;46.50;;;;;;6003997;29;20038;-73
2023/01/01 13:44:16;;;;;;;20.58;8.40;;;21.10;46.70;;;;;;6002205;29;20121;-74
2023/01/01 13:47:46;;;;;;;7.25;1.48;;;21.00;46.60;;;;;;6000273;29;20079;-74
2023/01/01 13:51:18;;;;;;;5.88;1.60;;;21.00;46.60;;;;;;6033428;29;20106;-73
2023/01/01 13:54:56;;;;;;;3.42;1.50;;;21.10;46.50;;;;;;6036862;29;20073;-73
2023/01/01 13:58:35;;;;;;;9.40;1.40;;;21.10;46.30;;;;;;6037639;29;20435;-73
2023/01/01 14:01:42;;;;;;;10.30;3.08;;;21.10;46.30;;;;;;6025662;29;20037;-73
2023/01/01 14:04:51;;;;;;;3.78;1.25;;;21.20;45.80;;;;;;6026057;29;20041;-73
2023/01/01 14:07:54;;;;;;;9.38;1.40;;;21.20;45.00;;;;;;6027402;29;20033;-73
2023/01/01 14:10:55;;;;;;;3.25;1.52;;;21.30;43.90;;;;;;6008282;29;20034;-73
2023/01/01 14:13:56;;;;;;;5.43;1.77;;;21.50;43.00;;;;;;6024661;29;20041;-74
2023/01/01 14:17:04;;;;;;;3.35;0.90;;;21.60;42.30;;;;;;6023133;29;20037;-73
2023/01/01 14:20:07;;;;;;;4.47;1.75;;;21.70;41.40;;;;;;6028147;29;20041;-74
2023/01/01 14:23:34;;;;;;;4.53;1.40;;;21.90;40.70;;;;;;6009780;29;20064;-74
2023/01/01 14:26:37;;;;;;;9.77;1.58;;;22.10;39.60;;;;;;6024694;29;20033;-72
2023/01/01 14:29:38;;;;;;;9.35;1.42;;;22.30;39.40;;;;;;6025874;29;20069;-73
2023/01/01 14:32:38;;;;;;;4.82;1.58;;;22.40;39.20;;;;;;6034127;29;20440;-74
2023/01/01 14:35:51;;;;;;;6.57;1.80;;;22.40;38.50;;;;;;6033282;29;20353;-74
2023/01/01 14:38:54;;;;;;;3.97;0.80;;;22.50;38.10;;;;;;6016034;29;20441;-74
2023/01/01 14:42:01;;;;;;;3.85;1.23;;;22.50;37.50;;;;;;6030861;29;20068;-73
2023/01/01 14:45:03;;;;;;;9.68;1.80;;;22.60;36.80;;;;;;6030868;29;20372;-74
2023/01/01 14:48:04;;;;;;;4.55;1.00;;;22.60;36.40;;;;;;6044372;29;20021;-73
2023/01/01 14:51:05;;;;;;;9.32;1.23;;;22.60;36.40;;;;;;6047824;29;20432;-74
2023/01/01 14:54:15;;;;;;;3.55;0.80;;;22.60;35.30;;;;;;6035650;29;20124;-73
2023/01/01 14:57:24;;;;;;;2.28;0.65;;;22.60;34.60;;;;;;6052031;29;20102;-73
2023/01/01 15:00:31;;;;;;;5.28;0.80;;;22.60;34.20;;;;;;6035066;29;20416;-73
2023/01/01 15:03:31;;;;;;;6.35;1.20;;;22.60;34.00;;;;;;6053233;29;20037;-74
2023/01/01 15:06:32;;;;;;;1.65;0.98;;;22.60;33.70;;;;;;6038670;29;20033;-73
2023/01/01 15:09:35;;;;;;;4.97;0.93;;;22.70;33.10;;;;;;6034454;29;20044;-74
2023/01/01 15:12:38;;;;;;;2.20;0.88;;;22.70;33.00;;;;;;6052353;29;20033;-73
2023/01/01 15:15:42;;;;;;;3.60;0.98;;;22.70;33.30;;;;;;6037477;29;20033;-74
2023/01/01 15:18:48;;;;;;;6.25;1.00;;;22.60;33.20;;;;;;6037275;29;20140;-74
2023/01/01 15:21:49;;;;;;;4.85;0.95;;;22.60;33.10;;;;;;6023419;29;20091;-73
2023/01/01 15:24:50;;;;;;;3.10;1.05;;;22.60;32.80;;;;;;6053893;29;20045;-74
2023/01/01 15:27:54;;;;;;;3.58;0.90;;;22.50;32.70;;;;;;6038238;29;20040;-73
2023/01/01 15:30:56;;;;;;;4.57;0.85;;;22.50;32.50;;;;;;6054879;29;20033;-73
2023/01/01 15:33:57;;;;;;;6.85;0.82;;;22.50;32.30;;;;;;6036705;29;20071;-74
2023/01/01 15:37:18;;;;;;;5.60;1.20;;;22.50;32.30;;;;;;6037749;29;20041;-74
2023/01/01 15:40:19;;;;;;;2.55;0.80;;;22.50;32.10;;;;;;6037119;29;20411;-73
2023/01/01 15:43:24;;;;;;;1.88;0.85;;;22.50;31.90;;;;;;6038826;29;20037;-73
2023/01/01 15:46:29;;;;;;;10.65;1.10;;;22.50;32.00;;;;;;6040846;29;20082;-72
2023/01/01 15:49:32;;;;;;;7.28;1.30;;;22.50;31.70;;;;;;6054134;29;20093;-73
2023/01/01 15:52:34;;;;;;;7.70;1.45;;;22.50;32.20;;;;;;6038541;29;20045;-74
2023/01/01 15:55:41;;;;;;;5.38;1.58;;;22.40;32.10;;;;;;6035454;29;20037;-73
2023/01/01 15:58:52;;;;;;;7.23;2.10;;;22.30;34.20;;;;;;6035957;29;20148;-73
2023/01/01 16:02:04;;;;;;;9.15;2.10;;;22.00;37.10;;;;;;6052504;29;20133;-74